createdAt,value
2019-04-13T00:02:02.165Z,16.73
2019-04-13T00:05:09.990Z,13.97
2019-04-13T00:11:27.186Z,14.67
2019-04-13T00:13:56.644Z,16.80
2019-04-13T00:16:45.422Z,20.20
2019-04-13T00:19:34.212Z,22.77
2019-04-13T00:22:22.996Z,16.77
2019-04-13T00:25:11.786Z,21.10
2019-04-13T00:28:00.573Z,21.87
2019-04-13T00:30:49.370Z,21.00
2019-04-13T00:33:38.145Z,16.97
2019-04-13T00:36:26.935Z,19.63
2019-04-13T00:39:34.751Z,18.30
2019-04-13T00:42:23.546Z,18.83
2019-04-13T00:45:12.392Z,26.83
2019-04-13T00:48:01.179Z,20.88
2019-04-13T00:50:49.976Z,19.33
2019-04-13T00:53:38.771Z,19.37
2019-04-13T00:56:27.622Z,22.40
2019-04-13T00:59:09.234Z,15.57
2019-04-13T01:01:58.099Z,17.20
2019-04-13T01:04:53.355Z,17.63
2019-04-13T01:07:37.450Z,19.47
2019-04-13T01:10:26.220Z,19.37
2019-04-13T01:13:15.008Z,16.87
2019-04-13T01:16:03.812Z,23.13
2019-04-13T01:22:07.663Z,22.00
2019-04-13T01:24:56.445Z,20.97
2019-04-13T01:27:45.244Z,21.10
2019-04-13T01:30:34.018Z,24.57
2019-04-13T01:33:22.814Z,20.60
2019-04-13T01:36:11.591Z,21.13
2019-04-13T01:39:00.387Z,25.90
2019-04-13T01:41:49.173Z,21.70
2019-04-13T01:44:37.974Z,19.83
2019-04-13T01:47:26.804Z,22.97
2019-04-13T01:50:15.565Z,22.87
2019-04-13T01:53:04.376Z,27.10
2019-04-13T01:55:53.504Z,22.37
2019-04-13T01:58:35.479Z,23.22
2019-04-13T02:01:24.043Z,27.00
2019-04-13T02:07:41.264Z,21.43
2019-04-13T02:10:49.071Z,20.60
2019-04-13T02:13:37.854Z,28.23
2019-04-13T02:16:26.650Z,21.10
2019-04-13T02:19:15.429Z,24.70
2019-04-13T02:22:04.219Z,27.47
2019-04-13T02:24:52.997Z,19.43
2019-04-13T02:27:41.795Z,26.50
2019-04-13T02:30:30.580Z,28.13
2019-04-13T02:33:21.758Z,31.33
2019-04-13T02:36:09.890Z,23.30
2019-04-13T02:38:58.692Z,24.40
2019-04-13T02:41:47.715Z,20.30
2019-04-13T02:44:36.504Z,26.53
2019-04-13T02:47:25.299Z,30.20
2019-04-13T02:50:14.456Z,24.30
2019-04-13T02:53:03.241Z,23.80
2019-04-13T02:55:52.034Z,27.77
2019-04-13T02:58:40.885Z,23.70
2019-04-13T03:01:23.028Z,29.30
2019-04-13T03:04:11.989Z,28.03
2019-04-13T03:07:00.883Z,23.80
2019-04-13T03:09:49.671Z,28.37
2019-04-13T03:12:38.458Z,25.65
2019-04-13T03:15:46.345Z,29.33
2019-04-13T03:21:44.520Z,25.70
2019-04-13T03:24:33.302Z,41.33
2019-04-13T03:27:22.103Z,25.93
2019-04-13T03:33:07.129Z,24.30
2019-04-13T03:35:59.568Z,26.07
2019-04-13T03:38:46.510Z,26.82
2019-04-13T03:41:56.053Z,25.43
2019-04-13T03:44:44.863Z,30.77
2019-04-13T03:47:33.642Z,24.50
2019-04-13T03:50:22.502Z,29.73
2019-04-13T03:53:11.293Z,35.97
2019-04-13T03:56:00.084Z,30.17
2019-04-13T03:58:48.862Z,30.87
2019-04-13T04:01:30.302Z,26.83
2019-04-13T04:04:19.092Z,35.17
2019-04-13T04:07:07.891Z,27.27
2019-04-13T04:09:57.031Z,30.47
2019-04-13T04:12:45.805Z,25.80
2019-04-13T04:15:34.699Z,30.70
2019-04-13T04:18:23.527Z,35.10
2019-04-13T04:21:12.311Z,24.90
2019-04-13T04:24:01.115Z,28.43
2019-04-13T04:26:49.907Z,30.77
2019-04-13T04:29:38.725Z,23.27
2019-04-13T04:32:27.530Z,30.13
2019-04-13T04:35:16.311Z,29.60
2019-04-13T04:38:05.111Z,25.43
2019-04-13T04:40:53.888Z,26.70
2019-04-13T04:43:42.707Z,29.63
2019-04-13T04:46:31.671Z,36.47
2019-04-13T04:49:20.561Z,33.70
2019-04-13T04:52:28.492Z,31.97
2019-04-13T04:55:17.398Z,27.43
2019-04-13T04:58:06.278Z,34.23
2019-04-13T05:00:47.737Z,30.17
2019-04-13T05:03:36.515Z,27.90
2019-04-13T05:06:35.452Z,31.17
2019-04-13T05:09:15.842Z,26.57
2019-04-13T05:12:04.640Z,34.00
2019-04-13T05:14:53.447Z,31.33
2019-04-13T05:17:42.228Z,33.30
2019-04-13T05:20:31.026Z,39.70
2019-04-13T05:23:19.812Z,28.13
2019-04-13T05:26:08.610Z,27.30
2019-04-13T05:28:57.401Z,28.17
2019-04-13T05:31:46.205Z,22.53
2019-04-13T05:34:34.984Z,41.08
2019-04-13T05:37:23.775Z,23.40
2019-04-13T05:40:12.684Z,28.57
2019-04-13T05:43:01.478Z,29.93
2019-04-13T05:45:50.266Z,41.67
2019-04-13T05:48:39.050Z,27.10
2019-04-13T05:51:27.842Z,30.67
2019-04-13T05:54:16.619Z,34.70
2019-04-13T05:57:05.417Z,28.27
2019-04-13T05:59:47.208Z,28.97
2019-04-13T06:02:36.065Z,27.80
2019-04-13T06:05:24.847Z,24.30
2019-04-13T06:08:13.628Z,25.27
2019-04-13T06:11:03.387Z,29.00
2019-04-13T06:13:52.927Z,22.20
2019-04-13T06:16:41.722Z,25.93
2019-04-13T06:19:30.498Z,25.07
2019-04-13T06:22:19.299Z,25.97
2019-04-13T06:28:36.565Z,35.20
2019-04-13T06:31:44.377Z,30.83
2019-04-13T06:34:52.198Z,36.40
2019-04-13T06:37:40.986Z,29.27
2019-04-13T06:40:29.783Z,32.80
2019-04-13T06:43:18.561Z,30.17
2019-04-13T06:46:07.430Z,29.83
2019-04-13T06:48:56.205Z,29.75
2019-04-13T06:51:45.008Z,23.20
2019-04-13T06:54:33.789Z,38.27
2019-04-13T06:57:22.592Z,23.27
2019-04-13T07:00:06.357Z,20.10
2019-04-13T07:02:55.142Z,20.63
2019-04-13T07:05:43.930Z,22.60
2019-04-13T07:08:52.517Z,21.10
2019-04-13T07:14:53.512Z,24.03
2019-04-13T07:20:32.223Z,22.57
2019-04-13T07:23:25.199Z,21.40
2019-04-13T07:26:11.520Z,22.60
2019-04-13T07:29:00.326Z,22.17
2019-04-13T07:31:49.193Z,20.80
2019-04-13T07:34:37.971Z,20.30
2019-04-13T07:37:36.201Z,19.87
2019-04-13T07:40:20.666Z,21.20
2019-04-13T07:46:20.702Z,23.67
2019-04-13T07:49:28.535Z,23.10
2019-04-13T07:52:36.342Z,25.57
2019-04-13T07:55:25.156Z,22.57
2019-04-13T07:58:16.677Z,23.57
2019-04-13T08:00:58.784Z,21.93
2019-04-13T08:03:47.857Z,18.97
2019-04-13T08:06:37.045Z,22.20
2019-04-13T08:09:27.223Z,23.40
2019-04-13T08:12:17.115Z,22.93
2019-04-13T08:18:35.410Z,22.90
2019-04-13T08:21:24.263Z,23.80
2019-04-13T08:24:13.053Z,21.53
2019-04-13T08:27:01.833Z,19.70
2019-04-13T08:29:50.623Z,20.20
2019-04-13T08:32:39.436Z,22.33
2019-04-13T08:35:28.224Z,22.97
2019-04-13T08:38:17.003Z,20.13
2019-04-13T08:41:11.166Z,18.90
2019-04-13T08:43:56.298Z,23.80
2019-04-13T08:49:52.916Z,19.83
2019-04-13T08:52:41.701Z,20.70
2019-04-13T08:55:30.491Z,18.97
2019-04-13T08:58:19.664Z,17.80
2019-04-13T09:01:02.787Z,15.00
2019-04-13T09:03:51.593Z,14.63
2019-04-13T09:06:40.389Z,19.83
2019-04-13T09:09:29.655Z,18.63
2019-04-13T09:12:20.485Z,17.90
2019-04-13T09:15:10.428Z,21.93
2019-04-13T09:18:18.633Z,21.20
2019-04-13T09:24:06.611Z,23.55
2019-04-13T09:26:55.378Z,20.20
2019-04-13T09:29:44.519Z,23.03
2019-04-13T09:32:34.671Z,18.20
2019-04-13T09:35:25.471Z,19.73
2019-04-13T09:38:14.004Z,20.80
2019-04-13T09:44:16.468Z,22.83
2019-04-13T09:53:19.833Z,26.20
2019-04-13T09:56:09.790Z,23.40
2019-04-13T09:58:58.582Z,23.25
2019-04-13T10:01:47.355Z,21.40
2019-04-13T10:04:36.158Z,17.63
2019-04-13T10:07:24.933Z,17.80
2019-04-13T10:10:13.735Z,19.03
2019-04-13T10:13:21.800Z,17.23
2019-04-13T10:16:29.615Z,21.83
2019-04-13T10:19:18.418Z,21.80
2019-04-13T10:22:07.211Z,20.37
2019-04-13T10:24:55.999Z,18.37
2019-04-13T10:27:47.667Z,19.20
2019-04-13T10:30:35.314Z,18.73
2019-04-13T10:33:24.103Z,16.17
2019-04-13T10:36:13.211Z,15.83
2019-04-13T10:39:08.372Z,14.50
2019-04-13T10:41:53.104Z,15.47
2019-04-13T10:48:01.113Z,17.43
2019-04-13T10:51:08.940Z,19.60
2019-04-13T10:53:57.711Z,20.23
2019-04-13T10:57:05.525Z,20.17
2019-04-13T10:59:54.313Z,16.00
2019-04-13T11:02:34.070Z,16.00
2019-04-13T11:05:22.881Z,17.07
2019-04-13T11:08:11.729Z,18.40
2019-04-13T11:11:00.519Z,16.80
2019-04-13T11:13:49.298Z,18.83
2019-04-13T11:16:38.101Z,15.20
2019-04-13T11:19:26.871Z,15.00
2019-04-13T11:22:15.675Z,15.53
2019-04-13T11:28:33.708Z,12.27
2019-04-13T11:31:23.156Z,11.50
2019-04-13T11:34:13.002Z,13.87
2019-04-13T11:37:01.768Z,13.53
2019-04-13T11:39:50.592Z,15.57
2019-04-13T11:42:39.177Z,10.10
2019-04-13T11:45:46.999Z,14.70
2019-04-13T11:48:35.545Z,13.80
2019-04-13T11:51:25.975Z,15.43
2019-04-13T11:54:14.758Z,16.20
2019-04-13T11:57:03.556Z,15.30
2019-04-13T11:59:52.327Z,16.10
2019-04-13T12:02:38.254Z,12.53
2019-04-13T12:05:46.026Z,12.67
2019-04-13T12:08:53.845Z,14.43
2019-04-13T12:14:51.990Z,15.97
2019-04-13T12:18:01.294Z,19.63
2019-04-13T12:21:09.120Z,15.23
2019-04-13T12:27:07.358Z,14.77
2019-04-13T12:29:56.133Z,13.60
2019-04-13T12:32:47.090Z,15.20
2019-04-13T12:35:35.449Z,18.00
2019-04-13T12:38:24.229Z,16.43
2019-04-13T12:41:32.047Z,19.07
2019-04-13T12:44:14.165Z,33.80
2019-04-13T12:49:58.678Z,24.97
2019-04-13T12:52:47.473Z,26.50
2019-04-13T12:55:36.265Z,26.73
2019-04-13T12:58:25.059Z,26.67
2019-04-13T13:01:32.932Z,21.60
2019-04-13T13:07:17.162Z,21.77
2019-04-13T13:10:26.852Z,25.03
2019-04-13T13:13:15.640Z,21.20
2019-04-13T13:16:04.421Z,22.30
2019-04-13T13:18:53.212Z,23.20
2019-04-13T13:21:41.986Z,19.77
2019-04-13T13:24:30.773Z,35.00
2019-04-13T13:27:19.572Z,24.73
2019-04-13T13:33:23.064Z,25.97
2019-04-13T13:36:11.840Z,24.90
2019-04-13T13:39:00.631Z,21.13
2019-04-13T13:41:49.416Z,22.80
2019-04-13T13:44:30.824Z,26.27
2019-04-13T13:47:19.611Z,32.40
2019-04-13T13:53:23.897Z,26.80
2019-04-13T13:56:12.677Z,27.50
2019-04-13T14:04:53.446Z,29.17
2019-04-13T14:07:42.242Z,32.30
2019-04-13T14:10:42.364Z,25.13
2019-04-13T14:13:21.554Z,28.40
2019-04-13T14:19:04.713Z,41.83
2019-04-13T14:21:53.506Z,26.83
2019-04-13T14:24:42.282Z,27.80
2019-04-13T14:27:31.076Z,27.13
2019-04-13T14:30:19.855Z,24.37
2019-04-13T14:33:08.724Z,28.70
2019-04-13T14:35:57.504Z,23.60
2019-04-13T14:38:46.377Z,25.50
2019-04-13T14:41:35.158Z,22.50
2019-04-13T14:44:23.959Z,30.20
2019-04-13T14:47:06.510Z,26.60
2019-04-13T14:49:58.419Z,24.47
2019-04-13T14:52:45.815Z,28.07
2019-04-13T14:55:34.582Z,26.17
2019-04-13T14:58:23.371Z,28.50
2019-04-13T15:01:12.160Z,25.20
2019-04-13T15:04:00.964Z,28.97
2019-04-13T15:06:49.734Z,30.90
2019-04-13T15:09:38.522Z,32.10
2019-04-13T15:12:27.301Z,28.13
2019-04-13T15:15:16.097Z,31.53
2019-04-13T15:21:15.521Z,36.67
2019-04-13T15:24:24.491Z,37.90
2019-04-13T15:33:12.578Z,40.27
2019-04-13T15:39:04.178Z,28.15
2019-04-13T15:42:03.112Z,29.13
2019-04-13T15:44:34.858Z,27.73
2019-04-13T15:47:27.136Z,36.07
2019-04-13T15:50:16.921Z,40.07
2019-04-13T15:53:04.689Z,41.60
2019-04-13T15:55:54.608Z,33.20
2019-04-13T15:58:44.667Z,35.40
2019-04-13T16:01:34.620Z,31.93
2019-04-13T16:04:45.594Z,44.67
2019-04-13T16:07:34.514Z,25.02
2019-04-13T16:10:24.684Z,24.40
2019-04-13T16:16:24.052Z,32.53
2019-04-13T16:19:13.607Z,36.73
2019-04-13T16:22:04.651Z,33.80
2019-04-13T16:24:54.677Z,31.83
2019-04-13T16:30:59.572Z,25.50
2019-04-13T16:34:07.738Z,28.63
2019-04-13T16:39:53.526Z,20.80
2019-04-13T16:42:43.247Z,24.70
2019-04-13T16:45:52.862Z,25.43
2019-04-13T16:49:07.534Z,29.03
2019-04-13T16:52:11.337Z,26.27
2019-04-13T17:01:14.680Z,26.93
2019-04-13T17:04:23.540Z,25.43
2019-04-13T17:07:13.995Z,28.62
2019-04-13T17:10:21.799Z,28.50
2019-04-13T17:13:11.740Z,25.80
2019-04-13T17:16:01.174Z,26.63
2019-04-13T17:19:09.764Z,25.77
2019-04-13T17:25:27.997Z,26.80
2019-04-13T17:31:45.201Z,31.80
2019-04-13T17:37:44.118Z,24.10
2019-04-13T17:43:54.969Z,35.07
2019-04-13T17:47:03.711Z,32.97
2019-04-13T17:50:11.542Z,39.40
2019-04-13T17:53:01.388Z,35.70
2019-04-13T17:59:19.767Z,52.48
2019-04-13T18:02:27.703Z,66.33
2019-04-13T18:05:35.812Z,41.90
2019-04-13T18:08:48.830Z,32.83
2019-04-13T18:11:53.441Z,32.60
2019-04-13T18:15:01.256Z,36.00
2019-04-13T18:20:45.619Z,41.90
2019-04-13T18:23:34.408Z,49.47
2019-04-13T18:26:23.216Z,102.33
2019-04-13T18:29:13.132Z,94.80
2019-04-13T18:32:03.010Z,105.20
2019-04-13T18:34:53.957Z,91.57
2019-04-13T18:37:43.633Z,88.93
2019-04-13T18:40:24.948Z,66.67
2019-04-13T18:43:19.409Z,46.23
2019-04-13T18:46:01.357Z,48.17
2019-04-13T18:48:48.871Z,43.80
2019-04-13T18:51:38.456Z,36.23
2019-04-13T18:54:28.003Z,45.93
2019-04-13T18:57:17.774Z,36.40
2019-04-13T19:00:27.828Z,35.77
2019-04-13T19:03:19.426Z,36.50
2019-04-13T19:06:08.548Z,42.90
2019-04-13T19:08:57.344Z,40.67
2019-04-13T19:11:46.137Z,33.17
2019-04-13T19:14:34.913Z,44.73
2019-04-13T19:17:23.725Z,41.83
2019-04-13T19:23:40.993Z,55.53
2019-04-13T19:26:29.773Z,58.83
2019-04-13T19:29:18.565Z,45.87
2019-04-13T19:32:07.345Z,56.80
2019-04-13T19:34:56.486Z,52.93
2019-04-13T19:41:06.479Z,68.57
2019-04-13T19:43:55.672Z,51.30
2019-04-13T19:46:44.554Z,59.30
2019-04-13T19:49:33.386Z,60.40
2019-04-13T19:52:43.048Z,58.20
2019-04-13T19:55:32.020Z,44.87
2019-04-13T19:58:20.873Z,54.50
2019-04-13T20:06:59.534Z,52.63
2019-04-13T20:09:48.331Z,60.23
2019-04-13T20:12:38.340Z,57.97
2019-04-13T20:15:27.727Z,45.87
2019-04-13T20:18:16.547Z,57.43
2019-04-13T20:21:05.449Z,54.53
2019-04-13T20:23:54.318Z,52.07
2019-04-13T20:26:43.151Z,47.77
2019-04-13T20:29:31.984Z,46.30
2019-04-13T20:32:21.052Z,48.20
2019-04-13T20:35:12.630Z,49.93
2019-04-13T20:38:02.040Z,41.50
2019-04-13T20:41:10.533Z,45.17
2019-04-13T20:43:59.608Z,47.93
2019-04-13T20:46:45.137Z,47.53
2019-04-13T20:49:34.778Z,58.13
2019-04-13T20:52:23.636Z,49.93
2019-04-13T20:55:13.354Z,47.60
2019-04-13T20:58:03.137Z,49.40
2019-04-13T21:00:52.972Z,49.33
2019-04-13T21:03:42.604Z,52.50
2019-04-13T21:06:33.018Z,56.90
2019-04-13T21:09:22.603Z,45.03
2019-04-13T21:15:07.600Z,49.80
2019-04-13T21:17:57.654Z,49.43
2019-04-13T21:20:47.789Z,49.17
2019-04-13T21:23:37.043Z,51.10
2019-04-13T21:26:27.103Z,50.93
2019-04-13T21:29:17.413Z,51.87
2019-04-13T21:32:07.517Z,49.03
2019-04-13T21:34:59.259Z,47.30
2019-04-13T21:37:48.789Z,52.83
2019-04-13T21:40:39.098Z,49.47
2019-04-13T21:43:29.904Z,47.20
2019-04-13T21:46:11.145Z,48.57
2019-04-13T21:49:01.151Z,51.47
2019-04-13T21:55:00.376Z,54.43
2019-04-13T21:58:09.976Z,53.27
2019-04-13T22:04:15.577Z,50.40
2019-04-13T22:10:20.290Z,45.10
2019-04-13T22:13:09.912Z,48.17
2019-04-13T22:16:01.598Z,49.97
2019-04-13T22:18:51.728Z,55.00
2019-04-13T22:21:41.557Z,55.27
2019-04-13T22:24:30.919Z,71.00
2019-04-13T22:27:20.890Z,49.07
2019-04-13T22:33:19.661Z,50.67
2019-04-13T22:36:29.025Z,49.67
2019-04-13T22:39:18.225Z,43.30
2019-04-13T22:42:08.275Z,44.33
2019-04-13T22:44:57.244Z,48.20
2019-04-13T22:51:09.917Z,56.07
2019-04-13T22:54:18.839Z,50.67
2019-04-13T22:57:28.273Z,54.57
2019-04-13T23:00:37.089Z,52.13
2019-04-13T23:06:20.674Z,51.20
2019-04-13T23:09:10.732Z,53.07
2019-04-13T23:12:01.086Z,50.70
2019-04-13T23:14:57.888Z,48.90
2019-04-13T23:17:22.313Z,52.13
2019-04-13T23:23:27.168Z,57.67
2019-04-13T23:26:16.886Z,53.70
2019-04-13T23:29:06.567Z,46.63
2019-04-13T23:31:56.438Z,51.57
2019-04-13T23:34:46.531Z,46.90
2019-04-13T23:37:36.632Z,44.77
2019-04-13T23:40:26.406Z,63.83
2019-04-13T23:43:16.839Z,46.73
2019-04-13T23:46:06.829Z,50.40
2019-04-13T23:48:56.974Z,48.47
2019-04-13T23:51:46.861Z,46.13
2019-04-13T23:54:36.886Z,48.20
